createdAt,value
2023-05-19T00:00:35.320Z,71.252000
2023-05-19T00:05:17.226Z,71.456000
2023-05-19T00:10:19.309Z,71.144000
2023-05-19T00:15:21.599Z,70.808000
2023-05-19T00:20:23.641Z,70.815714
2023-05-19T00:25:25.791Z,70.880000
2023-05-19T00:30:27.817Z,71.120000
2023-05-19T00:35:29.899Z,71.156000
2023-05-19T00:40:32.435Z,70.760000
2023-05-19T00:45:34.322Z,70.616000
2023-05-19T00:50:15.997Z,70.496000
2023-05-19T00:55:18.496Z,70.376000
2023-05-19T01:00:20.583Z,70.460000
2023-05-19T01:05:22.375Z,70.430000
2023-05-19T01:10:24.581Z,70.508000
2023-05-19T01:15:26.637Z,70.568000
2023-05-19T01:20:28.539Z,70.472000
2023-05-19T01:25:30.607Z,69.956000
2023-05-19T01:30:33.064Z,69.800000
2023-05-19T01:35:34.798Z,69.860000
2023-05-19T01:40:16.488Z,69.824000
2023-05-19T01:45:18.459Z,69.764000
2023-05-19T01:50:20.619Z,69.716000
2023-05-19T01:55:23.573Z,70.044286
2023-05-19T02:00:25.718Z,70.160000
2023-05-19T02:05:28.029Z,70.376000
2023-05-19T02:10:30.045Z,70.340000
2023-05-19T02:15:32.171Z,69.836000
2023-05-19T02:20:34.370Z,69.440000
2023-05-19T02:25:16.045Z,68.852000
2023-05-19T02:30:18.460Z,68.156000
2023-05-19T02:35:20.437Z,67.664000
2023-05-19T02:40:22.354Z,66.765714
2023-05-19T02:45:24.506Z,66.788000
2023-05-19T02:50:26.942Z,66.740000
2023-05-19T02:55:28.941Z,66.692000
2023-05-19T03:00:31.161Z,66.332000
2023-05-19T03:05:33.073Z,65.864000
2023-05-19T03:10:35.046Z,65.684000
2023-05-19T03:15:16.892Z,65.660000
2023-05-19T03:20:19.245Z,65.456000
2023-05-19T03:25:21.120Z,66.764000
2023-05-19T03:30:22.928Z,67.190000
2023-05-19T03:35:25.312Z,66.980000
2023-05-19T03:40:27.363Z,66.704000
2023-05-19T03:45:29.388Z,66.176000
2023-05-19T03:50:31.696Z,65.636000
2023-05-19T03:55:33.493Z,65.252000
2023-05-19T04:00:35.763Z,65.264000
2023-05-19T04:05:17.329Z,65.432000
2023-05-19T04:10:19.351Z,64.580000
2023-05-19T04:15:21.332Z,64.856000
2023-05-19T04:20:23.491Z,64.901429
2023-05-19T04:25:25.375Z,66.908000
2023-05-19T04:30:27.330Z,66.512000
2023-05-19T04:35:29.207Z,65.972000
2023-05-19T04:40:31.735Z,65.756000
2023-05-19T04:45:34.126Z,65.396000
2023-05-19T04:50:35.581Z,65.096000
2023-05-19T04:55:17.439Z,64.904000
2023-05-19T05:00:19.604Z,64.544000
2023-05-19T05:05:21.607Z,63.728000
2023-05-19T05:10:23.778Z,63.795714
2023-05-19T05:15:25.780Z,64.172000
2023-05-19T05:20:27.834Z,63.608000
2023-05-19T05:25:29.730Z,62.816000
2023-05-19T05:30:31.742Z,62.420000
2023-05-19T05:35:33.803Z,62.252000
2023-05-19T05:40:35.475Z,63.020000
2023-05-19T05:45:17.198Z,64.208000
2023-05-19T05:50:19.616Z,64.844000
2023-05-19T05:55:21.877Z,64.928000
2023-05-19T06:00:24.055Z,64.451429
2023-05-19T06:05:26.852Z,64.064000
2023-05-19T06:10:28.667Z,64.124000
2023-05-19T06:15:30.724Z,63.848000
2023-05-19T06:20:32.890Z,63.968000
2023-05-19T06:25:34.848Z,64.124000
2023-05-19T06:30:16.265Z,64.784000
2023-05-19T06:35:18.248Z,64.940000
2023-05-19T06:40:20.413Z,64.760000
2023-05-19T06:45:22.437Z,64.477143
2023-05-19T06:50:24.762Z,64.508000
2023-05-19T06:55:27.816Z,64.400000
2023-05-19T07:00:28.527Z,64.448000
2023-05-19T07:05:30.743Z,64.280000
2023-05-19T07:10:32.861Z,64.088000
2023-05-19T07:15:35.417Z,63.848000
2023-05-19T07:20:17.018Z,63.752000
2023-05-19T07:25:19.305Z,63.632000
2023-05-19T07:30:21.667Z,63.212000
2023-05-19T07:35:23.213Z,63.050000
2023-05-19T07:40:25.334Z,63.608000
2023-05-19T07:45:27.214Z,64.100000
2023-05-19T07:50:29.129Z,65.072000
2023-05-19T07:55:31.157Z,64.304000
2023-05-19T08:00:33.456Z,62.552000
2023-05-19T08:05:35.382Z,62.360000
2023-05-19T08:10:17.077Z,61.964000
2023-05-19T08:15:19.065Z,62.948000
2023-05-19T08:20:21.543Z,63.788000
2023-05-19T08:25:23.440Z,64.040000
2023-05-19T08:30:25.689Z,63.392000
2023-05-19T08:35:27.616Z,62.744000
2023-05-19T08:40:29.680Z,63.116000
2023-05-19T08:45:32.179Z,63.104000
2023-05-19T08:50:34.039Z,62.804000
2023-05-19T08:55:15.706Z,62.504000
2023-05-19T09:00:17.688Z,62.480000
2023-05-19T09:05:20.042Z,62.396000
2023-05-19T09:10:22.252Z,62.587143
2023-05-19T09:15:24.220Z,62.852000
2023-05-19T09:20:26.344Z,62.840000
2023-05-19T09:25:28.326Z,63.092000
2023-05-19T09:30:30.431Z,63.152000
2023-05-19T09:35:32.676Z,62.876000
2023-05-19T09:40:34.427Z,63.476000
2023-05-19T09:45:16.100Z,63.260000
2023-05-19T09:50:18.127Z,63.320000
2023-05-19T09:55:20.368Z,63.404000
2023-05-19T10:00:22.380Z,63.345714
2023-05-19T10:05:24.268Z,63.320000
2023-05-19T10:10:26.378Z,63.308000
2023-05-19T10:15:28.640Z,63.188000
2023-05-19T10:20:30.911Z,63.044000
2023-05-19T10:25:32.751Z,62.840000
2023-05-19T10:30:34.765Z,62.768000
2023-05-19T10:35:16.742Z,62.960000
2023-05-19T10:40:18.981Z,62.888000
2023-05-19T10:45:20.862Z,62.960000
2023-05-19T10:50:22.755Z,62.882857
2023-05-19T10:55:24.930Z,62.564000
2023-05-19T11:00:27.196Z,62.408000
2023-05-19T11:05:29.570Z,62.264000
2023-05-19T11:10:31.616Z,62.576000
2023-05-19T11:15:34.214Z,62.312000
2023-05-19T11:20:15.763Z,62.348000
2023-05-19T11:25:18.042Z,62.360000
2023-05-19T11:30:19.809Z,62.072000
2023-05-19T11:35:22.149Z,62.188571
2023-05-19T11:40:24.307Z,62.180000
2023-05-19T11:45:26.279Z,62.060000
2023-05-19T11:50:28.157Z,61.796000
2023-05-19T11:55:30.320Z,61.700000
2023-05-19T12:00:32.831Z,61.568000
2023-05-19T12:05:37.980Z,61.340000
2023-05-19T12:10:17.870Z,61.592000
2023-05-19T12:15:18.938Z,61.628000
2023-05-19T12:20:21.022Z,61.676000
2023-05-19T12:25:22.896Z,61.404286
2023-05-19T12:30:25.024Z,61.160000
2023-05-19T12:35:27.782Z,61.316000
2023-05-19T12:40:29.183Z,61.436000
2023-05-19T12:45:31.102Z,61.664000
2023-05-19T12:50:33.619Z,61.856000
2023-05-19T12:55:35.478Z,62.024000
2023-05-19T13:00:17.456Z,62.312000
2023-05-19T13:05:19.596Z,62.768000
2023-05-19T13:10:21.535Z,62.696000
2023-05-19T13:15:23.877Z,62.960000
2023-05-19T13:20:28.237Z,62.708000
2023-05-19T13:25:27.890Z,62.144000
2023-05-19T13:30:29.799Z,62.276000
2023-05-19T13:35:32.023Z,62.552000
2023-05-19T13:40:33.906Z,63.056000
2023-05-19T13:45:15.781Z,61.700000
2023-05-19T13:50:18.022Z,60.932000
2023-05-19T13:55:20.396Z,60.896000
2023-05-19T14:00:23.066Z,60.825714
2023-05-19T14:05:25.150Z,61.532000
2023-05-19T14:10:27.120Z,61.568000
2023-05-19T14:15:29.528Z,61.712000
2023-05-19T14:20:31.028Z,62.588000
2023-05-19T14:25:33.471Z,63.224000
2023-05-19T14:30:35.574Z,63.260000
2023-05-19T14:35:17.275Z,63.884000
2023-05-19T14:40:19.911Z,64.472000
2023-05-19T14:45:21.895Z,65.876000
2023-05-19T14:50:24.057Z,65.955714
2023-05-19T14:55:26.162Z,67.196000
2023-05-19T15:00:28.452Z,67.088000
2023-05-19T15:05:30.345Z,67.652000
2023-05-19T15:10:32.596Z,67.772000
2023-05-19T15:15:34.627Z,67.964000
2023-05-19T15:20:16.261Z,68.180000
2023-05-19T15:25:18.261Z,68.540000
2023-05-19T15:30:20.248Z,68.696000
2023-05-19T15:35:22.414Z,68.347143
2023-05-19T15:40:24.894Z,68.564000
2023-05-19T15:45:26.607Z,68.144000
2023-05-19T15:50:28.687Z,67.664000
2023-05-19T15:55:31.071Z,67.568000
2023-05-19T16:00:33.181Z,67.460000
2023-05-19T16:05:34.954Z,67.232000
2023-05-19T16:10:16.602Z,67.892000
2023-05-19T16:15:18.587Z,68.468000
2023-05-19T16:20:21.038Z,69.092000
2023-05-19T16:25:23.027Z,69.118571
2023-05-19T16:30:25.162Z,69.224000
2023-05-19T16:35:28.191Z,69.908000
2023-05-19T16:40:30.983Z,70.592000
2023-05-19T16:45:31.657Z,70.028000
2023-05-19T16:50:33.894Z,70.064000
2023-05-19T16:55:35.648Z,70.712000
2023-05-19T17:00:17.516Z,70.904000
2023-05-19T17:05:19.373Z,71.300000
2023-05-19T17:10:21.399Z,72.680000
2023-05-19T17:15:23.379Z,73.631429
2023-05-19T17:20:25.279Z,72.992000
2023-05-19T17:25:27.613Z,73.316000
2023-05-19T17:30:29.882Z,72.788000
2023-05-19T17:35:31.990Z,73.160000
2023-05-19T17:40:34.095Z,72.956000
2023-05-19T17:45:15.971Z,72.992000
2023-05-19T17:50:18.460Z,72.908000
2023-05-19T17:55:20.352Z,73.868000
2023-05-19T18:00:22.280Z,73.207143
2023-05-19T18:05:24.286Z,72.932000
2023-05-19T18:10:26.455Z,73.724000
2023-05-19T18:15:28.637Z,74.816000
2023-05-19T18:20:30.556Z,74.108000
2023-05-19T18:25:32.335Z,75.056000
2023-05-19T18:30:34.747Z,75.104000
2023-05-19T18:35:16.095Z,75.452000
2023-05-19T18:40:18.014Z,75.860000
2023-05-19T18:45:19.950Z,76.220000
2023-05-19T18:50:22.015Z,75.380000
2023-05-19T18:55:24.419Z,75.675714
2023-05-19T19:00:26.352Z,76.064000
2023-05-19T19:05:28.605Z,76.340000
2023-05-19T19:10:30.794Z,76.076000
2023-05-19T19:15:32.825Z,76.868000
2023-05-19T19:20:35.258Z,76.064000
2023-05-19T19:25:16.817Z,76.040000
2023-05-19T19:30:18.880Z,76.184000
2023-05-19T19:35:20.793Z,76.712000
2023-05-19T19:40:22.778Z,77.360000
2023-05-19T19:45:24.938Z,77.060000
2023-05-19T19:50:26.825Z,76.148000
2023-05-19T19:55:28.738Z,77.132000
2023-05-19T20:00:30.952Z,76.700000
2023-05-19T20:05:32.895Z,76.688000
2023-05-19T20:10:35.377Z,76.976000
2023-05-19T20:15:16.954Z,77.276000
2023-05-19T20:20:19.288Z,78.140000
2023-05-19T20:25:21.304Z,77.060000
2023-05-19T20:30:23.217Z,77.038571
2023-05-19T20:35:25.695Z,77.804000
2023-05-19T20:40:27.874Z,78.344000
2023-05-19T20:45:29.878Z,78.644000
2023-05-19T20:50:32.210Z,78.884000
2023-05-19T20:55:34.274Z,78.500000
2023-05-19T21:00:15.850Z,77.684000
2023-05-19T21:05:17.864Z,77.504000
2023-05-19T21:10:20.037Z,77.480000
2023-05-19T21:15:21.818Z,78.524000
2023-05-19T21:20:24.033Z,79.211429
2023-05-19T21:25:26.011Z,78.164000
2023-05-19T21:30:27.953Z,79.268000
2023-05-19T21:35:30.402Z,78.968000
2023-05-19T21:40:32.804Z,79.136000
2023-05-19T21:45:34.731Z,78.608000
2023-05-19T21:50:16.664Z,78.344000
2023-05-19T21:55:18.729Z,78.692000
2023-05-19T22:00:20.807Z,79.292000
2023-05-19T22:05:22.600Z,78.748571
2023-05-19T22:10:24.790Z,78.032000
2023-05-19T22:15:26.970Z,78.992000
2023-05-19T22:20:28.858Z,78.308000
2023-05-19T22:25:31.136Z,78.320000
2023-05-19T22:30:33.380Z,78.644000
2023-05-19T22:35:35.184Z,79.196000
2023-05-19T22:40:17.868Z,79.232000
2023-05-19T22:45:20.527Z,78.728000
2023-05-19T22:50:22.659Z,79.147143
2023-05-19T22:55:24.936Z,79.220000
2023-05-19T23:00:26.919Z,79.220000
2023-05-19T23:05:29.166Z,79.520000
2023-05-19T23:10:31.177Z,78.944000
2023-05-19T23:15:33.580Z,79.232000
2023-05-19T23:20:16.620Z,79.628000
2023-05-19T23:25:17.684Z,79.712000
2023-05-19T23:30:19.689Z,79.424000
2023-05-19T23:35:21.677Z,79.790000
2023-05-19T23:40:24.513Z,79.796000
2023-05-19T23:45:26.858Z,78.836000
2023-05-19T23:50:29.088Z,78.788000
2023-05-19T23:55:31.289Z,78.716000
